Time;durP1;ratioP1;P1;durP2;ratioP2;P2;SDS_P1;SDS_P2;PMS_P1;PMS_P2;Temp;Humidity;BMP_temperature;BMP_pressure;BME280_temperature;BME280_humidity;BME280_pressure;Samples;Min_cycle;Max_cycle;Signal;HPM_P1;HPM_P2
2023/12/14 00:00:36;;;;;;;1.30;1.30;;;8.10;66.20;;;;;;20761;6749;74661;-77
2023/12/14 00:03:11;;;;;;;1.77;1.67;;;7.90;66.70;;;;;;20717;6749;307099;-74
2023/12/14 00:05:47;;;;;;;1.50;1.40;;;8.10;66.50;;;;;;20932;6749;68223;-74
2023/12/14 00:08:23;;;;;;;2.40;2.30;;;8.00;66.30;;;;;;20713;6749;306237;-74
2023/12/14 00:10:58;;;;;;;4.90;4.50;;;8.20;66.00;;;;;;20732;6749;68046;-74
2023/12/14 00:13:34;;;;;;;0.95;0.95;;;8.20;65.90;;;;;;20727;6749;277374;-74
2023/12/14 00:16:09;;;;;;;2.07;1.83;;;8.30;65.50;;;;;;20922;6749;67605;-74
2023/12/14 00:18:45;;;;;;;6.75;6.12;;;8.30;65.50;;;;;;20709;6749;336070;-74
2023/12/14 00:21:24;;;;;;;4.07;3.78;;;8.40;65.00;;;;;;20540;6805;308802;-74
2023/12/14 00:23:56;;;;;;;2.10;2.00;;;8.60;63.90;;;;;;20939;6746;68402;-74
2023/12/14 00:26:32;;;;;;;3.03;2.80;;;8.60;64.00;;;;;;20938;6746;67213;-74
2023/12/14 00:29:08;;;;;;;4.27;2.27;;;8.10;65.80;;;;;;20911;6746;67175;-75
2023/12/14 00:31:44;;;;;;;4.30;3.90;;;8.10;65.80;;;;;;20705;6751;301268;-74
2023/12/14 00:34:19;;;;;;;2.17;2.07;;;8.20;65.50;;;;;;20919;6751;89522;-75
2023/12/14 00:36:55;;;;;;;1.70;1.63;;;8.20;65.40;;;;;;20918;6751;67664;-75
2023/12/14 00:39:30;;;;;;;5.40;3.50;;;8.10;66.10;;;;;;20858;6751;68562;-75
2023/12/14 00:42:06;;;;;;;1.07;1.07;;;7.90;66.80;;;;;;20922;6751;67167;-74
2023/12/14 00:44:41;;;;;;;2.20;1.60;;;7.80;67.60;;;;;;20680;6761;308142;-74
2023/12/14 00:47:18;;;;;;;1.60;1.50;;;7.90;67.20;;;;;;20940;6746;67641;-75
2023/12/14 00:49:54;;;;;;;1.73;1.63;;;8.00;66.90;;;;;;20835;6752;68092;-74
2023/12/14 00:52:30;;;;;;;1.60;1.20;;;7.70;68.00;;;;;;20844;6776;67931;-75
2023/12/14 00:55:06;;;;;;;1.63;1.30;;;7.70;68.00;;;;;;20869;6767;67417;-74
2023/12/14 00:57:41;;;;;;;1.30;1.20;;;7.60;68.60;;;;;;20865;6767;67253;-74
2023/12/14 01:00:18;;;;;;;1.20;1.20;;;7.50;69.60;;;;;;20703;6776;68239;-74
2023/12/14 01:02:54;;;;;;;3.27;1.00;;;7.40;69.40;;;;;;20881;6761;67325;-74
2023/12/14 01:05:29;;;;;;;2.35;1.50;;;7.40;69.80;;;;;;20688;6756;336068;-74
2023/12/14 01:08:05;;;;;;;1.30;1.30;;;7.70;69.20;;;;;;20876;6763;75796;-74
2023/12/14 01:10:40;;;;;;;1.77;1.67;;;7.70;68.50;;;;;;20548;6756;308636;-73
2023/12/14 01:13:16;;;;;;;1.90;1.80;;;8.00;67.90;;;;;;20641;6773;307489;-74
2023/12/14 01:15:51;;;;;;;1.63;1.57;;;8.30;66.40;;;;;;20850;6773;67342;-74
2023/12/14 01:18:27;;;;;;;1.93;1.83;;;8.30;66.20;;;;;;20638;6773;306997;-75
2023/12/14 01:21:03;;;;;;;2.28;2.17;;;8.40;65.90;;;;;;20511;6773;338260;-75
2023/12/14 01:23:38;;;;;;;2.55;2.42;;;8.70;65.10;;;;;;20669;6763;307335;-74
2023/12/14 01:26:15;;;;;;;2.30;2.20;;;8.90;64.20;;;;;;20893;6760;73249;-74
2023/12/14 01:28:51;;;;;;;2.93;2.83;;;8.70;64.30;;;;;;20674;6760;294620;-74
2023/12/14 01:31:26;;;;;;;2.30;2.10;;;8.70;64.40;;;;;;20867;6767;70503;-74
2023/12/14 01:34:02;;;;;;;2.70;2.50;;;8.60;64.60;;;;;;20916;6752;68001;-74
2023/12/14 01:36:38;;;;;;;2.30;2.20;;;8.10;67.30;;;;;;20912;6755;67592;-74
2023/12/14 01:39:14;;;;;;;3.10;2.90;;;8.10;66.60;;;;;;20653;6755;309612;-74
2023/12/14 01:41:50;;;;;;;2.57;2.43;;;8.30;66.80;;;;;;20903;6756;74276;-74
2023/12/14 01:44:26;;;;;;;2.50;2.40;;;8.30;66.80;;;;;;20908;6756;67778;-74
2023/12/14 01:47:01;;;;;;;2.07;1.97;;;8.10;67.40;;;;;;20903;6756;67699;-74
2023/12/14 01:49:37;;;;;;;2.92;2.72;;;8.00;68.10;;;;;;20621;6756;339007;-74
2023/12/14 01:52:06;;;;;;;2.60;2.50;;;8.20;67.70;;;;;;20909;6761;67653;-74
2023/12/14 01:54:31;;;;;;;3.00;2.90;;;8.20;67.70;;;;;;20667;6820;278295;-74
2023/12/14 01:56:58;;;;;;;2.70;2.50;;;8.40;67.50;;;;;;20935;6802;72436;-75
2023/12/14 01:59:24;;;;;;;2.50;2.23;;;8.40;67.20;;;;;;20896;6802;68493;-74
2023/12/14 02:01:52;;;;;;;3.17;2.97;;;8.20;67.80;;;;;;20570;6850;282710;-74
2023/12/14 02:04:18;;;;;;;3.17;2.97;;;8.30;67.80;;;;;;20559;6850;281511;-75
2023/12/14 02:06:43;;;;;;;2.97;2.83;;;8.60;66.70;;;;;;20783;6850;67962;-74
2023/12/14 02:09:09;;;;;;;2.53;2.43;;;8.60;66.40;;;;;;20733;6865;69410;-74
2023/12/14 02:11:34;;;;;;;3.07;2.80;;;8.40;67.00;;;;;;20777;6850;68117;-74
2023/12/14 02:14:03;;;;;;;3.40;3.20;;;8.20;67.70;;;;;;20526;6865;310269;-75
2023/12/14 02:16:29;;;;;;;4.00;3.80;;;8.30;67.60;;;;;;20519;6865;308429;-75
2023/12/14 02:18:54;;;;;;;3.03;2.93;;;8.60;66.30;;;;;;20718;6867;71715;-74
2023/12/14 02:21:20;;;;;;;4.27;3.83;;;8.60;66.10;;;;;;20569;6850;338353;-74
2023/12/14 02:23:45;;;;;;;3.40;3.13;;;8.60;65.90;;;;;;20784;6850;67542;-74
2023/12/14 02:26:11;;;;;;;4.73;4.43;;;8.60;65.90;;;;;;20565;6850;278380;-74
2023/12/14 02:28:36;;;;;;;4.07;3.73;;;8.60;65.80;;;;;;20779;6850;71657;-74
2023/12/14 02:31:02;;;;;;;5.23;4.87;;;8.50;65.70;;;;;;20568;6849;281039;-74
2023/12/14 02:33:28;;;;;;;4.00;3.70;;;8.50;65.70;;;;;;20743;6648;132093;-77
2023/12/14 02:36:03;;;;;;;3.50;3.30;;;8.50;65.70;;;;;;20849;6760;117206;-77
2023/12/14 02:38:40;;;;;;;5.33;4.93;;;8.30;67.00;;;;;;20620;6762;283654;-77
2023/12/14 02:41:16;;;;;;;3.70;3.50;;;8.30;66.90;;;;;;20863;6762;116874;-77
2023/12/14 02:43:52;;;;;;;3.50;3.30;;;8.30;66.90;;;;;;20806;6766;117173;-77
2023/12/14 02:46:27;;;;;;;5.10;4.60;;;8.10;67.70;;;;;;20587;6780;338543;-77
2023/12/14 02:49:03;;;;;;;3.77;3.53;;;8.20;67.80;;;;;;20789;6779;119477;-76
2023/12/14 02:51:39;;;;;;;3.70;3.50;;;8.20;67.70;;;;;;20848;6764;118767;-77
2023/12/14 02:54:14;;;;;;;5.00;4.60;;;8.10;68.40;;;;;;20615;6776;334782;-77
2023/12/14 02:56:50;;;;;;;3.90;3.33;;;8.20;68.40;;;;;;20909;6746;116892;-76
2023/12/14 02:59:26;;;;;;;3.90;3.50;;;8.10;69.00;;;;;;20745;6767;117054;-77
2023/12/14 03:02:03;;;;;;;3.53;3.33;;;7.90;69.90;;;;;;20804;6775;116963;-77
2023/12/14 03:04:39;;;;;;;5.50;5.10;;;7.90;69.90;;;;;;20650;6761;307358;-76
2023/12/14 03:07:15;;;;;;;5.57;5.10;;;8.10;69.70;;;;;;20600;6776;307831;-77
2023/12/14 03:09:56;;;;;;;4.20;3.90;;;8.50;68.40;;;;;;20675;6789;119013;-77
2023/12/14 03:12:28;;;;;;;8.83;8.00;;;8.50;68.10;;;;;;20653;6761;306334;-76
2023/12/14 03:15:04;;;;;;;6.43;5.57;;;8.60;67.70;;;;;;20859;6763;116979;-76
2023/12/14 03:17:40;;;;;;;6.00;5.57;;;8.50;67.70;;;;;;20675;6748;336504;-75
2023/12/14 03:20:16;;;;;;;4.20;3.90;;;8.70;67.50;;;;;;20697;6764;117488;-76
2023/12/14 03:22:51;;;;;;;5.20;4.73;;;8.70;67.50;;;;;;20648;6764;287343;-76
2023/12/14 03:25:27;;;;;;;6.20;5.70;;;8.70;67.10;;;;;;20669;6756;278524;-76
2023/12/14 03:28:03;;;;;;;5.82;5.43;;;9.00;66.00;;;;;;20687;6741;281031;-76
2023/12/14 03:30:38;;;;;;;5.83;5.43;;;9.20;64.90;;;;;;20478;6816;309232;-76
2023/12/14 03:33:15;;;;;;;5.80;5.30;;;9.50;63.70;;;;;;20660;6761;277406;-76
2023/12/14 03:35:50;;;;;;;5.85;5.45;;;9.50;63.70;;;;;;20664;6749;306668;-76
2023/12/14 03:38:26;;;;;;;4.27;3.97;;;9.60;63.10;;;;;;20841;6763;117161;-76
2023/12/14 03:41:01;;;;;;;4.27;3.97;;;9.30;63.50;;;;;;20940;6749;117145;-76
2023/12/14 03:43:38;;;;;;;4.60;4.30;;;9.00;65.10;;;;;;20699;6741;309018;-76
2023/12/14 03:46:14;;;;;;;3.50;3.30;;;8.90;65.40;;;;;;20932;6740;118530;-76
2023/12/14 03:48:50;;;;;;;4.70;3.03;;;8.80;65.30;;;;;;20872;6741;116833;-76
2023/12/14 03:51:25;;;;;;;4.70;4.22;;;8.60;66.20;;;;;;20689;6749;336493;-78
2023/12/14 03:54:01;;;;;;;4.60;4.20;;;8.70;66.40;;;;;;20651;6741;282009;-77
2023/12/14 03:56:37;;;;;;;4.40;4.10;;;9.00;65.50;;;;;;20682;6643;307761;-80
2023/12/14 03:59:12;;;;;;;4.40;4.10;;;9.20;64.50;;;;;;20531;6771;279469;-78
2023/12/14 04:01:48;;;;;;;4.40;4.20;;;9.40;63.80;;;;;;20649;6758;303767;-79
2023/12/14 04:04:23;;;;;;;3.20;3.00;;;9.50;63.30;;;;;;20789;6785;118600;-79
2023/12/14 04:06:59;;;;;;;2.93;2.73;;;9.30;63.60;;;;;;20830;6771;117204;-80
2023/12/14 04:09:35;;;;;;;4.20;3.90;;;9.00;64.60;;;;;;20581;6764;280019;-81
2023/12/14 04:12:12;;;;;;;4.40;4.10;;;9.00;65.00;;;;;;20741;6732;344515;-81
2023/12/14 04:14:49;;;;;;;3.77;3.10;;;9.10;64.90;;;;;;20920;6743;116848;-80
2023/12/14 04:17:24;;;;;;;4.00;3.60;;;9.00;64.50;;;;;;20690;6743;307132;-80
2023/12/14 04:20:00;;;;;;;4.80;4.30;;;9.10;64.60;;;;;;20570;6731;307884;-80
2023/12/14 04:22:35;;;;;;;3.50;3.30;;;9.30;63.90;;;;;;20953;6734;119011;-80
2023/12/14 04:25:12;;;;;;;2.87;2.67;;;8.90;65.10;;;;;;20925;6741;116866;-80
2023/12/14 04:27:48;;;;;;;2.63;2.43;;;8.60;66.10;;;;;;20904;6741;118233;-80
2023/12/14 04:30:24;;;;;;;2.50;2.40;;;8.60;66.00;;;;;;20722;6741;117275;-79
2023/12/14 04:32:59;;;;;;;3.95;3.60;;;8.40;67.00;;;;;;20692;6749;309704;-77
2023/12/14 04:35:36;;;;;;;4.50;4.10;;;8.60;67.10;;;;;;20687;6741;335757;-78
2023/12/14 04:38:10;;;;;;;4.55;4.15;;;8.90;65.90;;;;;;20671;6756;278483;-78
2023/12/14 04:40:46;;;;;;;3.40;3.10;;;9.20;65.00;;;;;;20874;6761;68891;-78
2023/12/14 04:43:22;;;;;;;3.00;2.83;;;9.10;65.00;;;;;;20952;6738;67811;-77
2023/12/14 04:45:57;;;;;;;3.07;2.80;;;8.80;65.80;;;;;;20939;6746;67167;-78
2023/12/14 04:48:33;;;;;;;3.23;3.03;;;8.60;66.80;;;;;;20831;6731;67993;-78
2023/12/14 04:51:09;;;;;;;4.30;3.90;;;8.50;67.70;;;;;;20631;6766;336494;-77
2023/12/14 04:53:45;;;;;;;3.57;3.10;;;8.60;67.00;;;;;;20938;6742;67550;-78
2023/12/14 04:56:20;;;;;;;2.43;2.33;;;8.60;67.00;;;;;;20946;6741;72916;-77
2023/12/14 04:58:56;;;;;;;2.80;2.60;;;8.50;67.50;;;;;;20855;6741;68087;-77
2023/12/14 05:01:32;;;;;;;3.03;2.77;;;8.30;68.20;;;;;;20938;6741;67610;-77
2023/12/14 05:04:07;;;;;;;2.87;2.63;;;8.10;68.70;;;;;;20937;6741;67150;-78
2023/12/14 05:06:43;;;;;;;4.40;4.10;;;8.00;69.10;;;;;;20726;6742;336021;-78
2023/12/14 05:09:19;;;;;;;3.20;3.00;;;8.30;68.70;;;;;;20831;6742;67640;-79
2023/12/14 05:11:55;;;;;;;3.43;3.23;;;8.30;68.70;;;;;;20929;6742;67650;-78
2023/12/14 05:14:31;;;;;;;3.70;3.40;;;8.20;69.20;;;;;;20937;6742;69450;-79
2023/12/14 05:17:06;;;;;;;4.05;3.85;;;8.10;69.80;;;;;;20715;6742;307353;-79
2023/12/14 05:19:45;;;;;;;3.40;3.10;;;8.30;69.40;;;;;;20817;6742;67963;-81
2023/12/14 05:22:18;;;;;;;4.70;4.40;;;8.30;69.00;;;;;;20726;6742;277437;-83
2023/12/14 05:24:53;;;;;;;4.50;4.20;;;8.50;68.50;;;;;;20725;6742;277635;-79
2023/12/14 05:27:29;;;;;;;4.03;3.83;;;8.80;67.00;;;;;;20732;6742;276987;-79
2023/12/14 05:30:06;;;;;;;3.90;3.70;;;9.10;66.00;;;;;;20554;6742;309748;-80
2023/12/14 05:32:42;;;;;;;3.10;2.90;;;9.30;65.10;;;;;;20945;6742;67627;-78
2023/12/14 05:35:17;;;;;;;3.13;2.93;;;9.10;65.30;;;;;;20935;6742;67104;-80
2023/12/14 05:37:53;;;;;;;3.07;2.87;;;8.90;66.30;;;;;;20947;6742;67663;-79
2023/12/14 05:40:29;;;;;;;4.53;4.15;;;8.60;67.40;;;;;;20522;6742;308044;-79
2023/12/14 05:43:04;;;;;;;4.95;4.65;;;8.70;67.60;;;;;;20732;6742;306486;-79
2023/12/14 05:45:41;;;;;;;3.83;3.60;;;9.00;66.40;;;;;;20951;6742;67604;-79
2023/12/14 05:48:16;;;;;;;4.75;4.45;;;8.90;66.30;;;;;;20720;6742;306111;-80
2023/12/14 05:50:52;;;;;;;3.87;3.67;;;9.00;66.20;;;;;;20939;6742;67532;-77
2023/12/14 05:53:27;;;;;;;3.70;3.40;;;9.00;66.40;;;;;;20945;6742;76025;-78
2023/12/14 05:56:03;;;;;;;5.07;4.70;;;8.70;67.00;;;;;;20730;6742;335483;-80
2023/12/14 05:58:39;;;;;;;6.87;3.80;;;8.80;66.90;;;;;;20889;6742;67691;-78
2023/12/14 06:01:18;;;;;;;3.97;3.43;;;8.60;67.60;;;;;;20921;6742;67578;-77
2023/12/14 06:03:54;;;;;;;6.13;3.60;;;8.60;67.60;;;;;;20919;6742;67159;-77
2023/12/14 06:06:30;;;;;;;5.85;5.20;;;8.40;69.10;;;;;;20733;6742;306043;-77
2023/12/14 06:09:08;;;;;;;121.10;8.13;;;8.50;68.20;;;;;;20627;6741;307590;-79
2023/12/14 06:11:44;;;;;;;66.77;6.33;;;8.80;66.90;;;;;;20937;6741;67528;-79
2023/12/14 06:14:20;;;;;;;44.42;8.23;;;8.80;66.60;;;;;;20704;6741;336450;-78
2023/12/14 06:16:55;;;;;;;398.07;18.43;;;8.80;66.50;;;;;;20932;6742;68029;-82
2023/12/14 06:19:31;;;;;;;140.87;11.53;;;8.80;66.70;;;;;;20818;6742;71432;-78
2023/12/14 06:22:06;;;;;;;259.10;16.33;;;8.50;67.40;;;;;;20934;6742;67083;-80
2023/12/14 06:24:42;;;;;;;588.77;25.07;;;8.40;68.10;;;;;;20942;6742;68007;-78
2023/12/14 06:27:18;;;;;;;304.92;21.33;;;8.20;69.20;;;;;;20712;6742;335268;-78
2023/12/14 06:29:53;;;;;;;92.00;15.32;;;8.40;69.00;;;;;;20640;6742;279788;-79
2023/12/14 08:30:43;;;;;;;10.10;7.30;;;10.30;60.30;;;;;;21382;6502;84478;-75
2023/12/14 08:33:29;;;;;;;15.00;8.93;;;10.00;60.80;;;;;;20712;6788;307319;-75
2023/12/14 08:36:05;;;;;;;8.53;7.13;;;9.90;62.40;;;;;;20948;6731;117178;-76
2023/12/14 08:38:40;;;;;;;6.67;6.10;;;9.60;63.10;;;;;;20956;6723;117339;-76
2023/12/14 08:41:16;;;;;;;10.23;8.40;;;9.40;64.30;;;;;;20738;6738;333179;-76
2023/12/14 08:43:52;;;;;;;15.30;7.67;;;9.40;65.10;;;;;;20898;6736;140770;-74
2023/12/14 08:46:28;;;;;;;20.37;10.43;;;9.30;65.10;;;;;;20640;6768;279088;-76
2023/12/14 08:49:03;;;;;;;7.13;6.53;;;9.40;66.00;;;;;;20860;6763;117770;-77
2023/12/14 08:51:39;;;;;;;6.40;5.67;;;9.40;65.40;;;;;;20891;6746;118484;-75
2023/12/14 08:54:14;;;;;;;10.30;9.18;;;9.20;66.10;;;;;;20754;6731;306613;-76
2023/12/14 08:56:51;;;;;;;7.90;7.10;;;9.30;66.30;;;;;;20909;6746;117109;-76
2023/12/14 08:59:26;;;;;;;13.73;7.07;;;9.30;66.30;;;;;;20807;6746;117930;-76
2023/12/14 09:02:02;;;;;;;10.93;7.17;;;9.10;67.00;;;;;;20858;6756;117194;-76
2023/12/14 09:04:38;;;;;;;11.40;9.50;;;9.00;67.80;;;;;;20587;6771;278322;-76
2023/12/14 09:07:14;;;;;;;8.33;7.23;;;9.20;67.90;;;;;;20808;6776;120091;-75
2023/12/14 09:09:50;;;;;;;10.13;9.23;;;9.10;67.80;;;;;;20472;6767;279125;-74
2023/12/14 09:12:25;;;;;;;7.60;6.80;;;9.30;67.60;;;;;;20801;6788;117097;-76
2023/12/14 09:15:04;;;;;;;6.80;6.27;;;9.20;67.90;;;;;;20846;6765;117000;-78
2023/12/14 09:17:42;;;;;;;9.47;8.67;;;9.20;67.90;;;;;;20585;6765;293340;-77
2023/12/14 09:20:15;;;;;;;9.87;8.93;;;9.30;67.70;;;;;;20491;6778;311513;-78
2023/12/14 09:22:51;;;;;;;7.50;6.87;;;9.60;66.80;;;;;;20862;6763;117097;-76
2023/12/14 09:25:27;;;;;;;9.83;8.60;;;9.60;66.60;;;;;;20646;6763;277978;-77
2023/12/14 09:28:02;;;;;;;9.65;8.85;;;9.70;66.80;;;;;;20573;6780;278919;-77
2023/12/14 09:30:39;;;;;;;7.40;6.70;;;9.90;66.20;;;;;;20711;6807;118116;-77
2023/12/14 09:33:15;;;;;;;6.80;6.23;;;9.90;66.30;;;;;;20770;6781;117169;-78
2023/12/14 09:35:50;;;;;;;8.75;7.87;;;9.70;67.20;;;;;;20513;6784;308974;-77
2023/12/14 09:38:26;;;;;;;8.23;7.60;;;9.80;67.30;;;;;;20496;6797;309945;-77
2023/12/14 09:41:08;;;;;;;10.13;5.97;;;10.10;65.30;;;;;;20832;6780;118285;-77
2023/12/14 09:43:40;;;;;;;7.32;6.82;;;10.10;65.20;;;;;;20631;6776;339530;-78
2023/12/14 09:46:19;;;;;;;5.30;4.90;;;10.10;64.90;;;;;;20816;6789;119357;-76
2023/12/14 09:48:55;;;;;;;5.43;4.93;;;10.00;65.10;;;;;;20810;6776;117136;-76
2023/12/14 09:51:28;;;;;;;6.50;6.00;;;10.00;66.40;;;;;;20688;6762;306277;-77
2023/12/14 09:54:03;;;;;;;7.12;6.55;;;9.90;66.70;;;;;;20620;6762;336979;-76
2023/12/14 09:56:46;;;;;;;5.57;5.27;;;10.20;64.60;;;;;;20803;6789;118362;-77
2023/12/14 09:59:22;;;;;;;6.95;6.55;;;10.20;64.70;;;;;;20548;6797;279503;-76
2023/12/14 10:02:11;;;;;;;5.63;5.23;;;10.20;64.80;;;;;;20785;6767;117539;-76
2023/12/14 10:04:47;;;;;;;7.07;6.62;;;10.20;64.90;;;;;;20580;6782;309213;-77
2023/12/14 15:40:50;;;;;;;3.93;3.73;;;10.80;58.50;;;;;;21527;6485;220625;31
2023/12/14 15:43:16;;;;;;;3.53;3.27;;;10.50;59.00;;;;;;21438;6640;66749;31
2023/12/14 15:45:43;;;;;;;3.90;3.23;;;10.20;59.90;;;;;;21425;6642;66258;31
2023/12/14 15:48:08;;;;;;;4.50;4.10;;;9.80;61.70;;;;;;21261;6625;301696;31
2023/12/14 15:50:34;;;;;;;3.90;3.70;;;9.90;61.80;;;;;;21473;6627;67159;31
2023/12/14 15:52:59;;;;;;;3.90;3.60;;;9.70;61.80;;;;;;21425;6640;67114;31
2023/12/14 15:55:26;;;;;;;5.35;4.95;;;9.50;62.50;;;;;;21265;6625;330692;31
2023/12/14 15:57:51;;;;;;;4.03;3.73;;;9.60;62.50;;;;;;21473;6627;66130;31
2023/12/14 16:00:16;;;;;;;3.60;3.30;;;9.50;62.30;;;;;;21419;6640;71710;31
2023/12/14 16:02:42;;;;;;;4.60;4.30;;;9.30;63.00;;;;;;21209;6642;330595;31
2023/12/14 16:05:09;;;;;;;5.15;4.82;;;9.40;62.70;;;;;;21256;6625;329620;31
2023/12/14 16:07:36;;;;;;;6.62;6.12;;;9.60;62.00;;;;;;21214;6640;330900;31
2023/12/14 16:10:02;;;;;;;5.40;5.00;;;9.90;61.40;;;;;;21210;6640;302059;31
2023/12/14 16:12:27;;;;;;;5.43;5.03;;;10.00;60.00;;;;;;21129;6639;293707;31
2023/12/14 16:14:56;;;;;;;5.32;4.93;;;10.20;59.90;;;;;;21233;6625;329584;31
2023/12/14 16:17:18;;;;;;;5.00;4.70;;;10.30;59.40;;;;;;21246;6627;301360;31
2023/12/14 16:19:44;;;;;;;4.50;4.20;;;10.40;59.00;;;;;;21418;6640;66226;31
2023/12/14 16:22:10;;;;;;;4.20;3.90;;;10.20;59.40;;;;;;21484;6625;67365;31
2023/12/14 16:24:35;;;;;;;5.22;4.82;;;9.80;61.20;;;;;;21265;6625;317521;31
2023/12/14 16:27:01;;;;;;;4.83;4.50;;;9.80;61.30;;;;;;21476;6627;66514;31
2023/12/14 16:29:26;;;;;;;5.80;5.40;;;9.70;61.70;;;;;;21198;6640;330632;31
2023/12/14 16:31:52;;;;;;;5.03;4.63;;;9.80;61.90;;;;;;21432;6639;66269;31
2023/12/14 16:34:17;;;;;;;6.18;5.60;;;9.70;62.10;;;;;;21265;6625;331277;31
2023/12/14 16:36:44;;;;;;;4.63;4.33;;;9.70;62.00;;;;;;21472;6627;67322;31
2023/12/14 16:39:11;;;;;;;6.00;5.60;;;9.70;62.10;;;;;;21191;6640;309809;31
2023/12/14 16:41:37;;;;;;;37.10;24.87;;;9.70;62.10;;;;;;21423;6642;89848;31
2023/12/14 16:44:04;;;;;;;8.80;8.03;;;9.70;62.30;;;;;;21438;6640;67089;31
2023/12/14 16:46:28;;;;;;;6.85;6.25;;;9.40;63.40;;;;;;21257;6625;330456;31
2023/12/14 16:48:53;;;;;;;6.40;6.00;;;9.50;62.80;;;;;;21210;6640;329705;31
2023/12/14 16:51:20;;;;;;;5.20;4.70;;;9.70;62.00;;;;;;21422;6640;67446;31
2023/12/14 16:53:48;;;;;;;6.43;5.93;;;9.60;61.90;;;;;;21251;6625;301786;31
2023/12/14 16:56:14;;;;;;;5.47;5.07;;;9.60;62.10;;;;;;21415;6641;66866;31
2023/12/14 16:58:39;;;;;;;6.65;6.15;;;9.50;62.30;;;;;;21241;6625;272241;31
2023/12/14 17:01:05;;;;;;;7.37;6.78;;;9.60;62.50;;;;;;20768;6641;338519;31
2023/12/14 17:03:30;;;;;;;7.23;6.63;;;9.70;62.00;;;;;;20534;6848;308580;31
2023/12/14 17:05:57;;;;;;;7.30;6.70;;;9.90;61.70;;;;;;20519;6848;293717;31
2023/12/14 17:08:23;;;;;;;7.05;6.45;;;10.10;60.50;;;;;;20532;6848;340291;31
2023/12/14 17:10:51;;;;;;;7.40;6.80;;;10.20;60.10;;;;;;20536;6848;278430;31
2023/12/14 17:13:17;;;;;;;7.97;7.27;;;10.30;60.00;;;;;;20551;6848;278504;31
2023/12/14 17:15:42;;;;;;;7.40;6.80;;;10.30;59.80;;;;;;20526;6848;308810;31
2023/12/14 17:18:08;;;;;;;6.20;5.70;;;10.40;59.50;;;;;;20761;6848;118385;31
2023/12/14 17:20:34;;;;;;;5.93;5.40;;;10.20;60.00;;;;;;20746;6848;117528;31
2023/12/14 17:23:05;;;;;;;6.90;6.40;;;9.80;61.70;;;;;;20545;6848;308660;31
2023/12/14 17:25:34;;;;;;;7.90;6.40;;;9.80;62.10;;;;;;20548;6848;278924;31
2023/12/14 17:28:00;;;;;;;7.30;6.60;;;9.90;61.80;;;;;;20556;6848;309551;31
2023/12/14 17:30:26;;;;;;;5.20;4.85;;;10.10;60.40;;;;;;20773;6848;69486;31
2023/12/14 17:32:51;;;;;;;6.25;5.70;;;9.90;61.60;;;;;;20781;6848;67893;31
2023/12/14 17:35:19;;;;;;;7.50;6.90;;;9.60;62.30;;;;;;20536;6848;338264;31
2023/12/14 17:37:43;;;;;;;7.00;6.40;;;9.60;63.40;;;;;;20750;6848;68688;31
2023/12/14 17:40:10;;;;;;;7.75;6.90;;;9.50;63.60;;;;;;20769;6848;68075;31
2023/12/14 17:42:35;;;;;;;8.27;6.40;;;9.30;64.20;;;;;;20777;6848;69963;31
2023/12/14 17:45:01;;;;;;;7.65;6.95;;;9.10;65.00;;;;;;20777;6848;67395;31
2023/12/14 17:47:27;;;;;;;8.23;7.43;;;9.00;65.70;;;;;;20779;6848;68013;31
2023/12/14 17:49:53;;;;;;;8.10;7.35;;;8.90;66.40;;;;;;20775;6848;67420;31
2023/12/14 17:52:19;;;;;;;7.75;7.12;;;8.80;67.00;;;;;;20779;6848;68054;31
2023/12/14 17:54:45;;;;;;;10.13;9.23;;;8.70;67.40;;;;;;20539;6848;324243;31
2023/12/14 17:57:10;;;;;;;8.23;7.25;;;8.80;67.40;;;;;;20772;6848;67818;31
2023/12/14 17:59:36;;;;;;;10.17;9.30;;;8.90;67.00;;;;;;20563;6848;309331;31
2023/12/14 18:02:02;;;;;;;9.32;8.38;;;9.10;66.90;;;;;;20764;6846;67876;31
2023/12/14 18:04:27;;;;;;;11.50;10.40;;;9.20;66.50;;;;;;20572;6847;278812;31
2023/12/14 18:06:56;;;;;;;11.52;10.43;;;9.20;66.00;;;;;;20624;6829;292389;31
2023/12/14 18:09:22;;;;;;;15.77;12.33;;;9.50;65.20;;;;;;20828;6830;68258;31
2023/12/14 18:11:48;;;;;;;16.00;14.45;;;9.50;65.00;;;;;;20625;6830;278423;31
2023/12/14 18:14:13;;;;;;;11.12;9.95;;;9.50;64.20;;;;;;20843;6830;68430;31
2023/12/14 18:16:39;;;;;;;9.77;8.87;;;9.40;64.30;;;;;;20847;6830;72696;31
2023/12/14 18:19:07;;;;;;;9.25;8.35;;;9.20;65.00;;;;;;20832;6830;68431;31
2023/12/14 18:21:33;;;;;;;10.00;9.20;;;9.00;65.70;;;;;;20617;6830;307885;31
2023/12/14 18:23:59;;;;;;;11.12;10.23;;;9.10;65.60;;;;;;20626;6830;279003;31
2023/12/14 18:26:24;;;;;;;11.63;10.63;;;9.40;64.90;;;;;;20632;6830;326249;31
2023/12/14 18:28:50;;;;;;;11.77;10.88;;;9.70;64.20;;;;;;20628;6830;278821;31
2023/12/14 18:31:16;;;;;;;9.40;8.60;;;9.90;63.60;;;;;;20829;6830;69847;31
2023/12/14 18:33:41;;;;;;;9.88;8.98;;;9.80;63.70;;;;;;20841;6830;67876;31
2023/12/14 18:36:07;;;;;;;11.32;10.15;;;9.50;64.50;;;;;;20834;6830;67412;31
2023/12/14 18:38:33;;;;;;;8.70;7.90;;;9.30;65.30;;;;;;20829;6830;67858;31
2023/12/14 18:40:58;;;;;;;11.43;10.33;;;9.10;66.00;;;;;;20613;6830;308078;31
2023/12/14 18:43:23;;;;;;;8.57;7.85;;;9.20;65.70;;;;;;20835;6830;70539;31
2023/12/14 18:45:49;;;;;;;10.35;9.45;;;9.20;65.40;;;;;;20624;6830;309098;31
2023/12/14 18:48:15;;;;;;;10.67;9.67;;;9.30;64.60;;;;;;20833;6830;67303;31
2023/12/14 18:50:41;;;;;;;11.02;9.90;;;9.30;64.50;;;;;;20830;6830;67991;31
2023/12/14 18:53:08;;;;;;;11.18;10.27;;;9.10;65.20;;;;;;20619;6830;307375;31
2023/12/14 18:55:32;;;;;;;7.45;6.95;;;9.20;64.70;;;;;;20823;6830;68256;31
2023/12/14 18:57:57;;;;;;;6.72;6.22;;;9.10;64.50;;;;;;20613;6830;338747;31
2023/12/14 19:00:24;;;;;;;3.70;3.50;;;9.20;63.50;;;;;;20615;6830;290590;31
2023/12/14 19:02:49;;;;;;;3.40;3.20;;;9.40;62.00;;;;;;20833;6830;68307;31
2023/12/14 19:05:15;;;;;;;3.10;2.90;;;9.20;61.90;;;;;;20837;6830;67831;31
2023/12/14 19:07:40;;;;;;;2.20;2.10;;;8.90;62.70;;;;;;20831;6830;67832;31
2023/12/14 19:10:07;;;;;;;2.55;2.40;;;8.60;63.40;;;;;;20822;6830;70687;31
2023/12/14 19:12:32;;;;;;;11.73;11.13;;;8.40;64.10;;;;;;20831;6830;68274;31
2023/12/14 19:14:58;;;;;;;3.83;3.63;;;8.20;65.00;;;;;;20626;6828;305897;31
2023/12/14 19:17:25;;;;;;;5.10;4.80;;;8.30;64.70;;;;;;20832;6829;67745;31
2023/12/14 19:19:50;;;;;;;6.60;6.20;;;8.30;64.50;;;;;;20833;6829;67328;31
2023/12/14 19:22:15;;;;;;;5.30;4.93;;;8.20;65.00;;;;;;20835;6830;68330;31
2023/12/14 19:24:41;;;;;;;2.80;2.60;;;8.00;65.50;;;;;;20839;6830;67699;31
2023/12/14 19:27:08;;;;;;;3.63;3.30;;;7.90;66.20;;;;;;20833;6830;67577;31
2023/12/14 19:29:34;;;;;;;5.00;4.70;;;7.80;66.60;;;;;;20615;6830;337257;31
2023/12/14 19:32:00;;;;;;;5.90;5.50;;;8.00;66.50;;;;;;20620;6830;307731;31
2023/12/14 19:34:25;;;;;;;5.43;5.03;;;8.40;65.20;;;;;;20620;6830;308427;31
2023/12/14 19:36:51;;;;;;;7.18;6.68;;;8.70;64.10;;;;;;20620;6830;337311;31
2023/12/14 19:39:18;;;;;;;5.68;5.28;;;8.90;63.30;;;;;;20829;6830;67804;31
2023/12/14 19:41:42;;;;;;;5.75;5.25;;;8.90;63.40;;;;;;20613;6830;307989;31
2023/12/14 19:44:08;;;;;;;5.32;4.82;;;8.90;63.30;;;;;;20834;6830;67301;31
2023/12/14 19:46:33;;;;;;;5.28;4.80;;;8.80;63.50;;;;;;20839;6830;68146;31
2023/12/14 19:48:59;;;;;;;6.53;5.93;;;8.60;64.30;;;;;;20516;6830;337925;31
2023/12/14 19:51:24;;;;;;;5.75;5.25;;;8.70;64.40;;;;;;20827;6830;69814;31
2023/12/14 19:53:50;;;;;;;5.55;5.15;;;8.70;64.60;;;;;;20617;6830;312419;31
2023/12/14 19:56:17;;;;;;;9.07;8.18;;;8.80;64.30;;;;;;20613;6830;308957;31
2023/12/14 19:58:43;;;;;;;4.90;4.50;;;9.00;63.40;;;;;;20826;6830;68064;31
2023/12/14 20:01:09;;;;;;;5.60;5.18;;;9.00;63.40;;;;;;20605;6830;308658;31
2023/12/14 20:03:34;;;;;;;7.15;6.55;;;9.10;63.20;;;;;;20616;6830;278863;31
2023/12/14 20:05:59;;;;;;;5.37;4.70;;;9.30;62.60;;;;;;20830;6830;67651;31
2023/12/14 20:08:25;;;;;;;8.90;7.45;;;9.20;62.70;;;;;;20615;6830;340749;31
2023/12/14 20:10:52;;;;;;;4.97;4.47;;;9.20;62.60;;;;;;20828;6830;68698;31
2023/12/14 20:13:17;;;;;;;6.07;5.50;;;9.10;63.00;;;;;;20615;6830;336838;31
2023/12/14 20:15:43;;;;;;;5.60;4.80;;;9.10;62.90;;;;;;20829;6830;68128;31
2023/12/14 20:18:11;;;;;;;5.37;4.72;;;9.00;63.10;;;;;;20831;6830;68257;31
2023/12/14 20:20:37;;;;;;;4.40;4.00;;;8.80;63.80;;;;;;20802;6830;68470;31
2023/12/14 20:23:02;;;;;;;4.93;4.62;;;8.60;64.60;;;;;;20623;6830;309410;31
2023/12/14 20:25:28;;;;;;;4.28;3.87;;;8.70;64.30;;;;;;20829;6828;67290;31
2023/12/14 20:27:53;;;;;;;4.50;4.20;;;8.80;64.40;;;;;;20825;6829;67759;31
2023/12/14 20:30:19;;;;;;;6.22;5.05;;;8.60;64.90;;;;;;20813;6829;70117;31
2023/12/14 20:32:45;;;;;;;15.43;10.27;;;8.50;65.60;;;;;;20826;6830;68454;31
2023/12/14 20:35:14;;;;;;;13.80;10.57;;;8.40;66.10;;;;;;20968;6634;128511;-69
2023/12/14 20:37:46;;;;;;;20.92;15.63;;;8.30;66.70;;;;;;20731;6732;277274;-70
2023/12/14 20:40:22;;;;;;;12.90;11.33;;;8.90;64.20;;;;;;20536;6732;293196;-72
2023/12/14 20:42:58;;;;;;;10.03;9.13;;;8.80;64.10;;;;;;20751;6732;306637;-72